sensor_id;sensor_type;location;lat;lon;timestamp;temperature;humidity
37868;DHT22;24011;48.880;9.190;2022-10-16T02:48:21;24.60;45.60
37868;DHT22;24011;48.880;9.190;2022-10-16T02:51:45;24.60;45.60
37868;DHT22;24011;48.880;9.190;2022-10-16T02:55:19;24.60;45.70
37868;DHT22;24011;48.880;9.190;2022-10-16T02:58:45;24.60;45.70
37868;DHT22;24011;48.880;9.190;2022-10-16T03:02:19;24.60;45.70
37868;DHT22;24011;48.880;9.190;2022-10-16T03:05:51;24.50;45.60
37868;DHT22;24011;48.880;9.190;2022-10-16T03:09:25;24.60;45.70
37868;DHT22;24011;48.880;9.190;2022-10-16T03:12:51;24.50;45.60
37868;DHT22;24011;48.880;9.190;2022-10-16T03:16:25;24.50;45.60
37868;DHT22;24011;48.880;9.190;2022-10-16T03:19:51;24.50;45.60
37868;DHT22;24011;48.880;9.190;2022-10-16T03:23:27;24.50;45.60
37868;DHT22;24011;48.880;9.190;2022-10-16T03:26:51;24.60;45.60
37868;DHT22;24011;48.880;9.190;2022-10-16T03:30:25;24.50;45.60
37868;DHT22;24011;48.880;9.190;2022-10-16T03:33:51;24.60;45.60
37868;DHT22;24011;48.880;9.190;2022-10-16T03:37:25;24.60;45.70
37868;DHT22;24011;48.880;9.190;2022-10-16T03:40:33;24.60;45.60
37868;DHT22;24011;48.880;9.190;2022-10-16T03:44:07;24.50;45.60
37868;DHT22;24011;48.880;9.190;2022-10-16T03:47:33;24.60;45.70
37868;DHT22;24011;48.880;9.190;2022-10-16T03:51:07;24.60;45.60
37868;DHT22;24011;48.880;9.190;2022-10-16T03:54:33;24.50;45.60
37868;DHT22;24011;48.880;9.190;2022-10-16T03:58:09;24.50;45.60
37868;DHT22;24011;48.880;9.190;2022-10-16T04:01:33;24.50;45.60
37868;DHT22;24011;48.880;9.190;2022-10-16T04:05:08;24.50;45.60
37868;DHT22;24011;48.880;9.190;2022-10-16T04:08:33;24.50;45.60
37868;DHT22;24011;48.880;9.190;2022-10-16T04:12:08;24.60;45.60
37868;DHT22;24011;48.880;9.190;2022-10-16T04:15:45;24.60;45.60
37868;DHT22;24011;48.880;9.190;2022-10-16T04:19:09;24.50;45.60
37868;DHT22;24011;48.880;9.190;2022-10-16T04:22:44;24.60;45.60
37868;DHT22;24011;48.880;9.190;2022-10-16T04:26:15;24.60;45.60
37868;DHT22;24011;48.880;9.190;2022-10-16T04:29:50;24.60;45.60
37868;DHT22;24011;48.880;9.190;2022-10-16T04:33:22;24.50;45.50
37868;DHT22;24011;48.880;9.190;2022-10-16T04:36:56;24.60;45.50
37868;DHT22;24011;48.880;9.190;2022-10-16T04:40:22;24.60;45.50
37868;DHT22;24011;48.880;9.190;2022-10-16T04:43:56;24.60;45.50
37868;DHT22;24011;48.880;9.190;2022-10-16T04:47:22;24.60;45.50
37868;DHT22;24011;48.880;9.190;2022-10-16T04:51:04;24.60;45.50
37868;DHT22;24011;48.880;9.190;2022-10-16T04:54:28;24.60;45.50
37868;DHT22;24011;48.880;9.190;2022-10-16T04:58:02;24.60;45.50
37868;DHT22;24011;48.880;9.190;2022-10-16T05:01:28;24.60;45.50
37868;DHT22;24011;48.880;9.190;2022-10-16T05:05:02;24.60;45.50
37868;DHT22;24011;48.880;9.190;2022-10-16T05:08:34;24.60;45.50
37868;DHT22;24011;48.880;9.190;2022-10-16T05:12:08;24.60;45.50
37868;DHT22;24011;48.880;9.190;2022-10-16T05:15:34;24.60;45.50
37868;DHT22;24011;48.880;9.190;2022-10-16T05:19:08;24.60;45.40
37868;DHT22;24011;48.880;9.190;2022-10-16T05:22:34;24.60;45.50
37868;DHT22;24011;48.880;9.190;2022-10-16T05:26:20;24.60;45.50
37868;DHT22;24011;48.880;9.190;2022-10-16T05:29:46;24.60;45.40
37868;DHT22;24011;48.880;9.190;2022-10-16T05:33:20;24.60;46.00
37868;DHT22;24011;48.880;9.190;2022-10-16T05:36:52;24.60;45.40
37868;DHT22;24011;48.880;9.190;2022-10-16T05:40:26;24.60;45.40
37868;DHT22;24011;48.880;9.190;2022-10-16T05:44:04;24.60;45.50
37868;DHT22;24011;48.880;9.190;2022-10-16T05:47:38;24.60;45.40
37868;DHT22;24011;48.880;9.190;2022-10-16T05:51:11;24.60;45.40
37868;DHT22;24011;48.880;9.190;2022-10-16T05:54:45;24.60;45.40
37868;DHT22;24011;48.880;9.190;2022-10-16T05:58:10;24.60;45.40
37868;DHT22;24011;48.880;9.190;2022-10-16T06:01:57;24.60;45.40
37868;DHT22;24011;48.880;9.190;2022-10-16T06:05:22;24.60;45.40
37868;DHT22;24011;48.880;9.190;2022-10-16T06:08:57;24.60;45.40
37868;DHT22;24011;48.880;9.190;2022-10-16T06:12:23;24.60;45.40
37868;DHT22;24011;48.880;9.190;2022-10-16T06:15:57;24.60;45.40
37868;DHT22;24011;48.880;9.190;2022-10-16T07:39:25;24.60;45.40
37868;DHT22;24011;48.880;9.190;2022-10-16T07:43:49;24.60;46.00
37868;DHT22;24011;48.880;9.190;2022-10-16T07:48:19;24.60;45.40
37868;DHT22;24011;48.880;9.190;2022-10-16T07:52:43;24.60;45.30
37868;DHT22;24011;48.880;9.190;2022-10-16T07:56:57;24.60;45.30
37868;DHT22;24011;48.880;9.190;2022-10-16T08:00:27;24.60;45.30
37868;DHT22;24011;48.880;9.190;2022-10-16T08:04:15;24.60;45.30
37868;DHT22;24011;48.880;9.190;2022-10-16T08:07:39;24.60;45.30
37868;DHT22;24011;48.880;9.190;2022-10-16T08:11:07;24.60;45.30
37868;DHT22;24011;48.880;9.190;2022-10-16T08:14:39;24.70;45.30
37868;DHT22;24011;48.880;9.190;2022-10-16T08:18:13;24.70;45.40
37868;DHT22;24011;48.880;9.190;2022-10-16T08:21:39;24.70;45.30
37868;DHT22;24011;48.880;9.190;2022-10-16T08:25:13;24.70;45.40
37868;DHT22;24011;48.880;9.190;2022-10-16T08:28:39;24.70;45.40
37868;DHT22;24011;48.880;9.190;2022-10-16T08:31:57;24.70;45.40
37868;DHT22;24011;48.880;9.190;2022-10-16T08:35:21;24.70;45.40
37868;DHT22;24011;48.880;9.190;2022-10-16T08:38:55;24.70;45.40
37868;DHT22;24011;48.880;9.190;2022-10-16T08:42:38;24.70;45.40
37868;DHT22;24011;48.880;9.190;2022-10-16T08:46:20;24.80;45.30
37868;DHT22;24011;48.880;9.190;2022-10-16T08:50:02;24.70;45.30
37868;DHT22;24011;48.880;9.190;2022-10-16T08:53:38;24.80;45.30
37868;DHT22;24011;48.880;9.190;2022-10-16T08:57:08;24.80;45.30
37868;DHT22;24011;48.880;9.190;2022-10-16T09:00:38;24.80;45.30
37868;DHT22;24011;48.880;9.190;2022-10-16T09:08:21;24.80;45.20
37868;DHT22;24011;48.880;9.190;2022-10-16T09:11:51;24.80;45.20
37868;DHT22;24011;48.880;9.190;2022-10-16T09:15:32;24.80;45.20
37868;DHT22;24011;48.880;9.190;2022-10-16T09:19:03;24.80;45.20
37868;DHT22;24011;48.880;9.190;2022-10-16T09:22:38;24.80;45.20
37868;DHT22;24011;48.880;9.190;2022-10-16T09:26:14;24.80;45.10
37868;DHT22;24011;48.880;9.190;2022-10-16T09:29:44;24.80;45.10
37868;DHT22;24011;48.880;9.190;2022-10-16T09:33:10;24.80;45.10
37868;DHT22;24011;48.880;9.190;2022-10-16T09:36:44;24.80;45.00
37868;DHT22;24011;48.880;9.190;2022-10-16T09:40:23;24.80;45.10
37868;DHT22;24011;48.880;9.190;2022-10-16T09:44:15;24.80;45.00
37868;DHT22;24011;48.880;9.190;2022-10-16T09:47:44;24.80;45.00
37868;DHT22;24011;48.880;9.190;2022-10-16T09:51:16;24.90;45.00
37868;DHT22;24011;48.880;9.190;2022-10-16T09:54:48;24.90;45.00
37868;DHT22;24011;48.880;9.190;2022-10-16T09:58:22;24.90;45.00
37868;DHT22;24011;48.880;9.190;2022-10-16T10:01:52;24.90;44.90
37868;DHT22;24011;48.880;9.190;2022-10-16T10:05:28;24.90;44.90
37868;DHT22;24011;48.880;9.190;2022-10-16T10:08:58;24.90;44.90
37868;DHT22;24011;48.880;9.190;2022-10-16T10:12:32;24.90;44.90
37868;DHT22;24011;48.880;9.190;2022-10-16T10:15:58;24.90;44.90
37868;DHT22;24011;48.880;9.190;2022-10-16T10:19:45;24.90;44.90
37868;DHT22;24011;48.880;9.190;2022-10-16T10:23:27;25.00;44.90
37868;DHT22;24011;48.880;9.190;2022-10-16T10:26:57;24.90;44.90
37868;DHT22;24011;48.880;9.190;2022-10-16T10:30:27;25.00;44.90
37868;DHT22;24011;48.880;9.190;2022-10-16T10:34:04;25.00;44.80
37868;DHT22;24011;48.880;9.190;2022-10-16T10:37:41;25.10;44.80
37868;DHT22;24011;48.880;9.190;2022-10-16T10:45:27;25.00;44.80
37868;DHT22;24011;48.880;9.190;2022-10-16T10:49:03;25.10;44.80
37868;DHT22;24011;48.880;9.190;2022-10-16T10:52:53;25.00;44.70
37868;DHT22;24011;48.880;9.190;2022-10-16T10:56:35;25.10;44.70
37868;DHT22;24011;48.880;9.190;2022-10-16T11:00:15;25.10;44.90
37868;DHT22;24011;48.880;9.190;2022-10-16T11:04:04;25.20;44.60
37868;DHT22;24011;48.880;9.190;2022-10-16T11:07:33;25.20;44.50
37868;DHT22;24011;48.880;9.190;2022-10-16T11:11:23;25.30;44.50
37868;DHT22;24011;48.880;9.190;2022-10-16T11:14:48;25.30;44.50
37868;DHT22;24011;48.880;9.190;2022-10-16T11:18:41;25.30;44.50
37868;DHT22;24011;48.880;9.190;2022-10-16T11:30:47;25.30;44.40
37868;DHT22;24011;48.880;9.190;2022-10-16T11:34:21;25.30;44.40
37868;DHT22;24011;48.880;9.190;2022-10-16T11:37:47;25.30;44.50
37868;DHT22;24011;48.880;9.190;2022-10-16T11:41:20;25.30;44.40
37868;DHT22;24011;48.880;9.190;2022-10-16T11:44:50;25.30;44.40
37868;DHT22;24011;48.880;9.190;2022-10-16T11:48:31;25.30;44.40
37868;DHT22;24011;48.880;9.190;2022-10-16T11:51:59;25.40;44.50
37868;DHT22;24011;48.880;9.190;2022-10-16T11:56:20;25.40;44.40
37868;DHT22;24011;48.880;9.190;2022-10-16T13:30:23;25.70;44.00
37868;DHT22;24011;48.880;9.190;2022-10-16T13:34:15;25.70;43.90
37868;DHT22;24011;48.880;9.190;2022-10-16T13:38:44;25.70;43.80
37868;DHT22;24011;48.880;9.190;2022-10-16T13:43:02;25.70;43.80
37868;DHT22;24011;48.880;9.190;2022-10-16T14:36:21;25.80;43.80
37868;DHT22;24011;48.880;9.190;2022-10-16T14:39:51;25.80;43.80
37868;DHT22;24011;48.880;9.190;2022-10-16T14:43:29;25.80;43.90
37868;DHT22;24011;48.880;9.190;2022-10-16T14:46:53;25.70;43.80
37868;DHT22;24011;48.880;9.190;2022-10-16T14:50:27;25.80;44.00
37868;DHT22;24011;48.880;9.190;2022-10-16T14:53:59;25.70;43.80
37868;DHT22;24011;48.880;9.190;2022-10-16T14:57:33;25.80;43.90
37868;DHT22;24011;48.880;9.190;2022-10-16T15:00:53;25.70;43.90
37868;DHT22;24011;48.880;9.190;2022-10-16T15:04:03;25.80;44.00
37868;DHT22;24011;48.880;9.190;2022-10-16T15:06:45;25.70;43.90
37868;DHT22;24011;48.880;9.190;2022-10-16T15:10:00;25.70;44.00
37868;DHT22;24011;48.880;9.190;2022-10-16T15:12:59;25.70;43.90
37868;DHT22;24011;48.880;9.190;2022-10-16T15:16:10;25.70;43.90
37868;DHT22;24011;48.880;9.190;2022-10-16T15:18:57;25.70;43.90
37868;DHT22;24011;48.880;9.190;2022-10-16T15:22:11;25.70;43.90
37868;DHT22;24011;48.880;9.190;2022-10-16T15:25:37;25.70;43.90
37868;DHT22;24011;48.880;9.190;2022-10-16T15:28:51;25.70;43.90
37868;DHT22;24011;48.880;9.190;2022-10-16T15:35:53;25.70;43.90
37868;DHT22;24011;48.880;9.190;2022-10-16T15:39:29;25.70;43.90
37868;DHT22;24011;48.880;9.190;2022-10-16T15:50:53;25.70;44.00
37868;DHT22;24011;48.880;9.190;2022-10-16T15:54:29;25.70;44.00
37868;DHT22;24011;48.880;9.190;2022-10-16T15:58:03;25.70;44.00
37868;DHT22;24011;48.880;9.190;2022-10-16T16:01:23;25.70;44.10
37868;DHT22;24011;48.880;9.190;2022-10-16T16:05:37;25.70;44.00
37868;DHT22;24011;48.880;9.190;2022-10-16T16:09:07;25.60;44.00
37868;DHT22;24011;48.880;9.190;2022-10-16T16:12:07;25.60;44.10
37868;DHT22;24011;48.880;9.190;2022-10-16T16:15:30;25.60;44.10
37868;DHT22;24011;48.880;9.190;2022-10-16T16:18:57;25.60;44.10
37868;DHT22;24011;48.880;9.190;2022-10-16T16:23:00;25.60;44.10
37868;DHT22;24011;48.880;9.190;2022-10-16T16:34:30;25.60;44.20
37868;DHT22;24011;48.880;9.190;2022-10-16T16:37:46;25.60;44.20
37868;DHT22;24011;48.880;9.190;2022-10-16T16:40:48;25.60;44.10
37868;DHT22;24011;48.880;9.190;2022-10-16T16:43:54;25.60;44.20
37868;DHT22;24011;48.880;9.190;2022-10-16T16:46:51;25.60;44.20
37868;DHT22;24011;48.880;9.190;2022-10-16T16:49:53;25.60;44.30
37868;DHT22;24011;48.880;9.190;2022-10-16T16:52:48;25.60;44.20
37868;DHT22;24011;48.880;9.190;2022-10-16T16:55:42;25.60;44.30
37868;DHT22;24011;48.880;9.190;2022-10-16T16:58:44;25.60;44.20
37868;DHT22;24011;48.880;9.190;2022-10-16T17:01:47;25.50;44.10
37868;DHT22;24011;48.880;9.190;2022-10-16T17:04:59;25.50;44.30
37868;DHT22;24011;48.880;9.190;2022-10-16T17:07:53;25.50;44.30
37868;DHT22;24011;48.880;9.190;2022-10-16T17:11:19;25.50;44.30
37868;DHT22;24011;48.880;9.190;2022-10-16T17:14:47;25.50;44.30
37868;DHT22;24011;48.880;9.190;2022-10-16T17:18:06;25.50;44.30
37868;DHT22;24011;48.880;9.190;2022-10-16T17:21:14;25.50;44.40
37868;DHT22;24011;48.880;9.190;2022-10-16T17:24:24;25.50;44.40
37868;DHT22;24011;48.880;9.190;2022-10-16T17:27:48;25.50;44.40
37868;DHT22;24011;48.880;9.190;2022-10-16T17:31:10;25.50;44.40
37868;DHT22;24011;48.880;9.190;2022-10-16T17:34:18;25.50;44.50
37868;DHT22;24011;48.880;9.190;2022-10-16T17:37:21;25.50;44.50
37868;DHT22;24011;48.880;9.190;2022-10-16T17:40:47;25.50;44.60
37868;DHT22;24011;48.880;9.190;2022-10-16T17:43:48;25.40;44.50
37868;DHT22;24011;48.880;9.190;2022-10-16T17:47:00;25.40;44.50
37868;DHT22;24011;48.880;9.190;2022-10-16T17:50:00;25.40;44.50
37868;DHT22;24011;48.880;9.190;2022-10-16T17:53:36;25.40;44.50
37868;DHT22;24011;48.880;9.190;2022-10-16T17:56:54;25.40;44.50
37868;DHT22;24011;48.880;9.190;2022-10-16T18:00:00;25.40;44.60
37868;DHT22;24011;48.880;9.190;2022-10-16T18:02:57;25.40;45.20
37868;DHT22;24011;48.880;9.190;2022-10-16T18:06:06;25.40;45.20
37868;DHT22;24011;48.880;9.190;2022-10-16T18:09:24;25.40;45.20
37868;DHT22;24011;48.880;9.190;2022-10-16T18:13:00;25.40;44.60
37868;DHT22;24011;48.880;9.190;2022-10-16T18:16:36;25.40;44.60
37868;DHT22;24011;48.880;9.190;2022-10-16T18:20:00;25.40;44.60
37868;DHT22;24011;48.880;9.190;2022-10-16T18:23:02;25.40;44.70
37868;DHT22;24011;48.880;9.190;2022-10-16T18:26:19;25.40;44.70
37868;DHT22;24011;48.880;9.190;2022-10-16T18:29:28;25.30;44.60
37868;DHT22;24011;48.880;9.190;2022-10-16T18:32:19;25.30;44.70
37868;DHT22;24011;48.880;9.190;2022-10-16T18:35:37;25.30;44.70
37868;DHT22;24011;48.880;9.190;2022-10-16T18:39:06;25.30;44.70
37868;DHT22;24011;48.880;9.190;2022-10-16T18:42:54;25.30;44.70
37868;DHT22;24011;48.880;9.190;2022-10-16T18:46:24;25.30;44.70
37868;DHT22;24011;48.880;9.190;2022-10-16T19:05:54;25.30;44.90
37868;DHT22;24011;48.880;9.190;2022-10-16T19:09:08;25.30;44.70
37868;DHT22;24011;48.880;9.190;2022-10-16T19:12:18;25.30;44.70
37868;DHT22;24011;48.880;9.190;2022-10-16T19:16:09;25.30;44.70
37868;DHT22;24011;48.880;9.190;2022-10-16T19:20:08;25.30;44.70
37868;DHT22;24011;48.880;9.190;2022-10-16T19:31:48;25.20;44.70
37868;DHT22;24011;48.880;9.190;2022-10-16T19:35:33;25.20;44.70
37868;DHT22;24011;48.880;9.190;2022-10-16T19:38:34;25.20;44.70
37868;DHT22;24011;48.880;9.190;2022-10-16T19:42:30;25.20;44.80
37868;DHT22;24011;48.880;9.190;2022-10-16T19:46:48;25.20;44.80
37868;DHT22;24011;48.880;9.190;2022-10-16T19:54:43;25.20;44.80
37868;DHT22;24011;48.880;9.190;2022-10-16T19:58:19;25.20;44.70
37868;DHT22;24011;48.880;9.190;2022-10-16T20:05:37;25.20;44.80
37868;DHT22;24011;48.880;9.190;2022-10-16T20:08:51;25.20;44.90
37868;DHT22;24011;48.880;9.190;2022-10-16T20:11:43;25.10;44.80
37868;DHT22;24011;48.880;9.190;2022-10-16T20:15:19;25.10;44.80
37868;DHT22;24011;48.880;9.190;2022-10-16T20:19:01;25.10;44.90
37868;DHT22;24011;48.880;9.190;2022-10-16T20:27:33;25.10;44.90
37868;DHT22;24011;48.880;9.190;2022-10-16T20:31:04;25.10;44.90
37868;DHT22;24011;48.880;9.190;2022-10-16T20:34:48;25.10;44.90
37868;DHT22;24011;48.880;9.190;2022-10-16T20:38:17;25.10;44.90
37868;DHT22;24011;48.880;9.190;2022-10-16T20:42:08;25.20;44.90
37868;DHT22;24011;48.880;9.190;2022-10-16T20:49:55;25.10;45.10
37868;DHT22;24011;48.880;9.190;2022-10-16T20:53:44;25.10;45.00
37868;DHT22;24011;48.880;9.190;2022-10-16T20:56:33;25.10;45.00
37868;DHT22;24011;48.880;9.190;2022-10-16T20:59:36;25.00;45.60
37868;DHT22;24011;48.880;9.190;2022-10-16T21:03:27;25.00;45.00
37868;DHT22;24011;48.880;9.190;2022-10-16T21:07:33;25.10;45.10
37868;DHT22;24011;48.880;9.190;2022-10-16T21:11:30;25.10;45.10
37868;DHT22;24011;48.880;9.190;2022-10-16T21:15:49;25.00;45.10
37868;DHT22;24011;48.880;9.190;2022-10-16T21:20:12;25.10;45.10
37868;DHT22;24011;48.880;9.190;2022-10-16T21:23:57;25.10;45.10
37868;DHT22;24011;48.880;9.190;2022-10-16T21:27:57;25.10;45.10
37868;DHT22;24011;48.880;9.190;2022-10-16T21:40:53;25.00;45.10
37868;DHT22;24011;48.880;9.190;2022-10-16T21:44:42;25.00;45.20
37868;DHT22;24011;48.880;9.190;2022-10-16T21:48:01;25.00;45.10
37868;DHT22;24011;48.880;9.190;2022-10-16T21:51:43;25.00;45.10
37868;DHT22;24011;48.880;9.190;2022-10-16T21:55:13;25.00;45.10
37868;DHT22;24011;48.880;9.190;2022-10-16T21:59:07;25.00;45.10
37868;DHT22;24011;48.880;9.190;2022-10-16T22:02:08;24.90;45.10
37868;DHT22;24011;48.880;9.190;2022-10-16T22:05:31;25.00;45.20
37868;DHT22;24011;48.880;9.190;2022-10-16T22:09:57;24.90;45.10
37868;DHT22;24011;48.880;9.190;2022-10-16T22:13:43;25.00;45.10
37868;DHT22;24011;48.880;9.190;2022-10-16T22:17:07;25.00;45.10
37868;DHT22;24011;48.880;9.190;2022-10-16T22:20:43;25.00;45.10
37868;DHT22;24011;48.880;9.190;2022-10-16T22:28:31;25.00;45.00
37868;DHT22;24011;48.880;9.190;2022-10-16T22:32:50;25.00;45.10
37868;DHT22;24011;48.880;9.190;2022-10-16T22:41:02;25.00;45.10
37868;DHT22;24011;48.880;9.190;2022-10-16T22:44:30;25.00;45.10
37868;DHT22;24011;48.880;9.190;2022-10-16T22:47:25;24.90;45.10
37868;DHT22;24011;48.880;9.190;2022-10-16T22:51:04;24.90;45.10
37868;DHT22;24011;48.880;9.190;2022-10-16T22:55:04;25.00;45.20
37868;DHT22;24011;48.880;9.190;2022-10-16T22:59:08;25.00;45.10
37868;DHT22;24011;48.880;9.190;2022-10-16T23:02:53;24.90;45.10
37868;DHT22;24011;48.880;9.190;2022-10-16T23:10:18;24.90;45.10
37868;DHT22;24011;48.880;9.190;2022-10-16T23:13:33;24.90;45.10
37868;DHT22;24011;48.880;9.190;2022-10-16T23:16:56;24.90;45.10
37868;DHT22;24011;48.880;9.190;2022-10-16T23:20:25;24.90;45.20
37868;DHT22;24011;48.880;9.190;2022-10-16T23:23:38;24.90;45.10
37868;DHT22;24011;48.880;9.190;2022-10-16T23:31:48;24.90;45.20
37868;DHT22;24011;48.880;9.190;2022-10-16T23:35:10;24.90;45.20
37868;DHT22;24011;48.880;9.190;2022-10-16T23:38:56;24.90;45.20
37868;DHT22;24011;48.880;9.190;2022-10-16T23:42:58;24.80;45.10
37868;DHT22;24011;48.880;9.190;2022-10-16T23:51:14;24.90;45.20
37868;DHT22;24011;48.880;9.190;2022-10-16T23:54:08;24.90;45.20
37868;DHT22;24011;48.880;9.190;2022-10-16T23:57:50;24.80;45.10
